Time;durP1;ratioP1;P1;durP2;ratioP2;P2;SDS_P1;SDS_P2;PMS_P1;PMS_P2;Temp;Humidity;BMP_temperature;BMP_pressure;BME280_temperature;BME280_humidity;BME280_pressure;Samples;Min_cycle;Max_cycle;Signal;HPM_P1;HPM_P2
2021/06/10 00:02:02;;;;;;;25.40;23.20;;;16.50;99.90;;;;;;5053779;28;20218;-43
2021/06/10 00:04:31;;;;;;;26.00;23.58;;;16.50;99.90;;;;;;5053630;28;20716;-44
2021/06/10 00:06:58;;;;;;;26.58;24.05;;;16.50;99.90;;;;;;5053830;28;20637;-45
2021/06/10 00:09:26;;;;;;;26.50;24.10;;;16.50;99.90;;;;;;5053621;28;20219;-43
2021/06/10 00:11:55;;;;;;;25.65;23.27;;;16.50;99.90;;;;;;5053774;28;20208;-43
2021/06/10 00:14:22;;;;;;;26.63;24.25;;;16.50;99.90;;;;;;5053293;28;20677;-43
2021/06/10 00:16:50;;;;;;;26.25;23.85;;;16.40;99.90;;;;;;5053359;28;20214;-42
2021/06/10 00:19:17;;;;;;;28.17;24.88;;;16.40;99.90;;;;;;5053513;28;20223;-46
2021/06/10 00:21:45;;;;;;;25.92;23.73;;;16.40;99.90;;;;;;5053168;28;20250;-47
2021/06/10 00:24:13;;;;;;;26.33;23.92;;;16.40;99.90;;;;;;5053519;28;20208;-43
2021/06/10 00:26:41;;;;;;;26.20;23.80;;;16.40;99.90;;;;;;5053406;28;20208;-46
2021/06/10 00:29:09;;;;;;;26.45;24.15;;;16.40;99.90;;;;;;5053198;28;20295;-44
2021/06/10 00:31:37;;;;;;;25.85;23.35;;;16.40;99.90;;;;;;5053058;28;20572;-45
2021/06/10 00:34:05;;;;;;;27.35;24.95;;;16.40;99.90;;;;;;5053075;28;20218;-46
2021/06/10 00:36:32;;;;;;;26.23;23.98;;;16.30;99.90;;;;;;5053043;28;20243;-44
2021/06/10 00:39:00;;;;;;;25.58;23.40;;;16.30;99.90;;;;;;5052899;28;20745;-45
2021/06/10 00:41:32;;;;;;;27.50;25.05;;;16.30;99.90;;;;;;5052804;28;20275;-45
2021/06/10 00:43:59;;;;;;;26.00;23.65;;;16.30;99.90;;;;;;5053032;28;20273;-44
2021/06/10 00:46:28;;;;;;;27.50;25.05;;;16.20;99.90;;;;;;5052887;28;20295;-42
2021/06/10 00:48:55;;;;;;;26.88;24.60;;;16.20;99.90;;;;;;5052756;28;20215;-43
2021/06/10 00:51:23;;;;;;;24.50;22.23;;;16.20;99.90;;;;;;5052116;28;20220;-45
2021/06/10 00:53:50;;;;;;;25.42;23.13;;;16.20;99.90;;;;;;5052564;28;20239;-42
2021/06/10 00:56:18;;;;;;;27.10;24.20;;;16.20;99.90;;;;;;5052800;28;20298;-43
2021/06/10 00:58:45;;;;;;;25.77;23.45;;;16.20;99.90;;;;;;5052557;28;20318;-42
2021/06/10 01:01:13;;;;;;;26.45;23.98;;;16.20;99.90;;;;;;5052394;28;20265;-44
2021/06/10 01:03:41;;;;;;;27.10;24.70;;;16.20;99.90;;;;;;5052393;28;20212;-43
2021/06/10 01:06:19;;;;;;;27.48;25.00;;;16.10;99.90;;;;;;5052388;28;20737;-46
2021/06/10 01:08:51;;;;;;;27.20;24.95;;;16.10;99.90;;;;;;5052497;28;20299;-45
2021/06/10 01:11:24;;;;;;;28.25;25.52;;;16.10;99.90;;;;;;5052554;28;20304;-45
2021/06/10 01:14:04;;;;;;;26.20;23.75;;;16.10;99.90;;;;;;5052317;28;20677;-48
2021/06/10 01:16:37;;;;;;;26.65;24.35;;;16.10;99.90;;;;;;5052599;28;20228;-47
2021/06/10 01:19:11;;;;;;;28.00;25.40;;;16.00;99.90;;;;;;5052576;28;20568;-46
2021/06/10 01:21:41;;;;;;;26.58;24.25;;;16.00;99.90;;;;;;5052153;28;20702;-48
2021/06/10 01:24:23;;;;;;;28.80;26.20;;;16.00;99.90;;;;;;5052303;28;20358;-46
2021/06/10 01:26:59;;;;;;;28.00;25.50;;;16.00;99.90;;;;;;5052467;28;20302;-45
2021/06/10 01:29:28;;;;;;;26.80;24.42;;;16.00;99.90;;;;;;5052075;28;20223;-49
2021/06/10 01:31:55;;;;;;;26.95;24.55;;;15.90;99.90;;;;;;5052113;28;20267;-45
2021/06/10 01:34:25;;;;;;;26.60;24.30;;;15.90;99.90;;;;;;5052159;28;20208;-48
2021/06/10 01:36:55;;;;;;;27.05;24.75;;;15.90;99.90;;;;;;5051895;28;20204;-46
2021/06/10 01:39:28;;;;;;;26.05;23.65;;;15.90;99.90;;;;;;5052039;28;20285;-48
2021/06/10 01:41:57;;;;;;;26.80;24.45;;;15.90;99.90;;;;;;5052028;28;20263;-49
2021/06/10 01:44:28;;;;;;;26.35;24.05;;;15.80;99.90;;;;;;5051869;28;20298;-48
2021/06/10 01:46:56;;;;;;;28.98;26.35;;;15.80;99.90;;;;;;5051985;28;20212;-47
2021/06/10 01:49:25;;;;;;;27.75;25.25;;;15.80;99.90;;;;;;5051700;28;20302;-49
2021/06/10 01:51:54;;;;;;;27.80;25.30;;;15.80;99.90;;;;;;5051980;28;20240;-45
2021/06/10 01:54:23;;;;;;;26.42;23.83;;;15.80;99.90;;;;;;5051994;28;20295;-48
2021/06/10 01:56:51;;;;;;;29.05;26.35;;;15.70;99.90;;;;;;5051683;28;20214;-48
2021/06/10 01:59:22;;;;;;;28.42;25.75;;;15.70;99.90;;;;;;5051799;28;20295;-46
2021/06/10 02:01:52;;;;;;;28.80;26.15;;;15.70;99.90;;;;;;5051486;28;20247;-46
2021/06/10 02:04:21;;;;;;;28.20;25.63;;;15.60;99.90;;;;;;5051695;28;20718;-46
2021/06/10 02:06:49;;;;;;;28.05;25.50;;;15.40;99.90;;;;;;5051788;28;20210;-45
2021/06/10 02:09:19;;;;;;;28.83;26.15;;;15.60;99.90;;;;;;5051877;28;20299;-47
2021/06/10 02:11:48;;;;;;;28.92;26.23;;;15.60;99.90;;;;;;5051657;28;20307;-45
2021/06/10 02:14:18;;;;;;;28.52;25.95;;;15.50;99.90;;;;;;5051667;28;20204;-49
2021/06/10 02:16:48;;;;;;;28.80;26.23;;;15.50;99.90;;;;;;5051626;28;20212;-47
2021/06/10 02:19:18;;;;;;;28.35;25.67;;;15.50;99.90;;;;;;5051866;28;20239;-43
2021/06/10 02:21:45;;;;;;;28.02;25.38;;;15.50;99.90;;;;;;5051604;28;20238;-41
2021/06/10 02:24:14;;;;;;;29.20;26.50;;;15.40;99.90;;;;;;5051427;28;20218;-41
2021/06/10 02:26:43;;;;;;;29.63;26.83;;;15.50;99.90;;;;;;5051393;28;20212;-41
2021/06/10 02:29:11;;;;;;;28.00;25.40;;;15.50;99.90;;;;;;5051679;28;20303;-41
2021/06/10 02:31:39;;;;;;;29.42;26.92;;;15.40;99.90;;;;;;5051390;28;20752;-43
2021/06/10 02:34:07;;;;;;;28.15;25.30;;;15.40;99.90;;;;;;5051467;28;20576;-42
2021/06/10 02:36:39;;;;;;;28.20;25.60;;;15.40;99.90;;;;;;5051522;28;20219;-41
2021/06/10 02:39:09;;;;;;;29.45;25.70;;;15.40;99.90;;;;;;5051417;28;20218;-43
2021/06/10 02:41:41;;;;;;;29.75;27.23;;;15.40;99.90;;;;;;5051196;28;20247;-42
2021/06/10 02:44:09;;;;;;;28.73;26.05;;;15.40;99.90;;;;;;5051604;28;20212;-40
2021/06/10 02:46:37;;;;;;;29.05;26.00;;;15.40;99.90;;;;;;5051466;28;20302;-41
2021/06/10 02:49:05;;;;;;;30.73;27.85;;;15.30;99.90;;;;;;5051624;28;20216;-41
2021/06/10 02:51:35;;;;;;;30.35;27.55;;;15.30;99.90;;;;;;5051286;28;20210;-42
2021/06/10 02:54:06;;;;;;;30.98;28.08;;;15.30;99.90;;;;;;5051077;28;20208;-42
2021/06/10 02:56:35;;;;;;;29.38;26.58;;;15.30;99.90;;;;;;5051367;28;20639;-46
2021/06/10 02:59:04;;;;;;;29.50;26.73;;;15.30;99.90;;;;;;5051315;28;20572;-45
2021/06/10 03:01:37;;;;;;;30.55;27.83;;;15.30;99.90;;;;;;5051123;28;20315;-42
2021/06/10 03:04:06;;;;;;;30.83;28.00;;;15.30;99.90;;;;;;5051430;28;20204;-45
2021/06/10 03:06:37;;;;;;;30.45;27.55;;;15.30;99.90;;;;;;5051339;28;20210;-42
2021/06/10 03:09:05;;;;;;;30.15;27.45;;;15.30;99.90;;;;;;5051230;28;20226;-43
2021/06/10 03:11:34;;;;;;;29.85;27.15;;;15.30;99.90;;;;;;5051449;28;20235;-44
2021/06/10 03:14:02;;;;;;;30.50;27.60;;;15.30;99.90;;;;;;5051436;28;20737;-46
2021/06/10 03:16:30;;;;;;;32.08;29.00;;;15.30;99.90;;;;;;5054782;28;20208;-44
2021/06/10 03:18:59;;;;;;;32.15;29.05;;;15.30;99.90;;;;;;5054672;28;20627;-43
2021/06/10 03:21:27;;;;;;;31.52;28.52;;;15.30;99.90;;;;;;5054903;28;20322;-42
2021/06/10 03:23:57;;;;;;;30.88;28.13;;;15.30;99.90;;;;;;5054864;28;20304;-47
2021/06/10 03:26:26;;;;;;;30.88;28.02;;;15.30;99.90;;;;;;5054768;28;20212;-43
2021/06/10 03:28:54;;;;;;;31.73;28.83;;;15.30;99.90;;;;;;5054659;28;20222;-43
2021/06/10 03:31:22;;;;;;;30.92;28.02;;;15.30;99.90;;;;;;5054429;28;20246;-42
2021/06/10 03:33:50;;;;;;;30.67;27.85;;;15.30;99.90;;;;;;5054710;28;20219;-44
2021/06/10 03:36:19;;;;;;;34.40;30.27;;;15.30;99.90;;;;;;5054418;28;20240;-44
2021/06/10 03:38:48;;;;;;;34.10;30.55;;;15.30;99.90;;;;;;5054431;28;20211;-41
2021/06/10 03:41:18;;;;;;;34.40;30.88;;;15.30;99.90;;;;;;5054225;28;20246;-44
2021/06/10 03:43:47;;;;;;;33.80;30.38;;;15.30;99.90;;;;;;5054681;28;20633;-43
2021/06/10 03:46:15;;;;;;;33.47;30.27;;;15.30;99.90;;;;;;5054244;28;20208;-43
2021/06/10 03:48:43;;;;;;;35.38;31.75;;;15.30;99.90;;;;;;5054395;28;20307;-43
2021/06/10 03:51:11;;;;;;;34.20;30.80;;;15.30;99.90;;;;;;5054395;28;20286;-41
2021/06/10 03:53:38;;;;;;;33.08;29.88;;;15.30;99.90;;;;;;5054136;28;20752;-42
2021/06/10 03:56:06;;;;;;;33.30;29.95;;;15.30;99.90;;;;;;5054204;28;20219;-43
2021/06/10 03:58:34;;;;;;;32.78;29.50;;;15.40;99.90;;;;;;5054021;28;20596;-43
2021/06/10 04:01:02;;;;;;;32.80;29.73;;;15.50;99.90;;;;;;5053943;28;20314;-42
2021/06/10 04:03:30;;;;;;;31.10;28.20;;;15.50;99.90;;;;;;5053721;28;20210;-43
2021/06/10 04:05:58;;;;;;;33.80;30.50;;;15.50;99.90;;;;;;5053623;28;20210;-42
2021/06/10 04:08:25;;;;;;;32.47;29.17;;;15.60;99.90;;;;;;5053502;28;20742;-42
2021/06/10 04:10:53;;;;;;;30.02;27.23;;;15.60;99.90;;;;;;5053706;28;20302;-43
2021/06/10 04:13:20;;;;;;;28.98;26.20;;;15.60;99.90;;;;;;5053690;28;20227;-42
2021/06/10 04:15:49;;;;;;;31.83;28.60;;;15.70;99.90;;;;;;5053650;28;20214;-42
2021/06/10 04:18:18;;;;;;;29.98;27.08;;;15.70;99.90;;;;;;5053681;28;20224;-45
2021/06/10 04:20:47;;;;;;;30.73;27.83;;;15.80;99.90;;;;;;5052993;28;20294;-41
2021/06/10 04:23:14;;;;;;;29.40;26.75;;;15.80;99.90;;;;;;5053206;28;20307;-42
2021/06/10 04:25:42;;;;;;;30.17;27.38;;;15.80;99.90;;;;;;5052854;28;20307;-43
2021/06/10 04:28:09;;;;;;;28.67;26.08;;;15.90;99.90;;;;;;5053280;28;20299;-43
2021/06/10 04:30:37;;;;;;;32.67;29.50;;;15.90;99.90;;;;;;5053264;28;20244;-44
2021/06/10 04:33:06;;;;;;;30.00;27.20;;;15.90;99.90;;;;;;5053474;28;20215;-42
2021/06/10 04:35:34;;;;;;;28.67;25.83;;;16.00;99.90;;;;;;5053174;28;20216;-42
2021/06/10 04:38:01;;;;;;;28.35;25.63;;;16.10;99.90;;;;;;5053266;28;20311;-46
2021/06/10 04:40:29;;;;;;;28.40;25.67;;;16.10;99.90;;;;;;5053160;28;20240;-42
2021/06/10 04:42:56;;;;;;;26.50;24.15;;;16.10;99.90;;;;;;5053372;28;20232;-43
2021/06/10 04:45:24;;;;;;;25.40;23.10;;;16.20;99.90;;;;;;5053677;28;20210;-44
2021/06/10 04:47:52;;;;;;;25.25;23.05;;;16.30;99.90;;;;;;5053248;28;20663;-42
2021/06/10 04:50:22;;;;;;;25.65;23.35;;;16.30;99.90;;;;;;5053205;28;20666;-45
2021/06/10 04:52:49;;;;;;;27.77;24.17;;;16.30;99.90;;;;;;5052771;28;20239;-46
2021/06/10 04:55:17;;;;;;;27.60;25.10;;;16.40;99.90;;;;;;5053017;28;20219;-43
2021/06/10 04:57:44;;;;;;;27.25;24.77;;;16.40;99.90;;;;;;5052934;28;20218;-44
2021/06/10 05:00:14;;;;;;;26.65;24.33;;;16.50;99.90;;;;;;5053162;28;20281;-43
2021/06/10 05:02:41;;;;;;;25.90;23.40;;;16.50;99.90;;;;;;5052903;28;20362;-42
2021/06/10 05:05:10;;;;;;;26.30;24.00;;;16.50;99.90;;;;;;5052830;28;20218;-43
2021/06/10 05:07:39;;;;;;;25.90;23.60;;;16.60;99.90;;;;;;5052849;28;20295;-43
2021/06/10 05:10:07;;;;;;;26.67;24.25;;;16.70;99.90;;;;;;5052598;28;20203;-46
2021/06/10 05:12:36;;;;;;;25.60;23.20;;;16.80;99.90;;;;;;5052874;28;20283;-41
2021/06/10 05:15:05;;;;;;;26.30;24.00;;;16.80;99.90;;;;;;5052744;28;20208;-43
2021/06/10 05:17:32;;;;;;;26.92;24.33;;;16.90;99.90;;;;;;5052144;28;20222;-42
2021/06/10 05:20:00;;;;;;;26.58;23.63;;;17.00;99.90;;;;;;5052104;28;20207;-42
2021/06/10 05:22:28;;;;;;;27.20;24.80;;;;;;;;;;5051899;28;20524;-45
2021/06/10 05:24:57;;;;;;;24.98;22.77;;;17.30;99.90;;;;;;5052202;28;20239;-43
2021/06/10 05:27:24;;;;;;;25.40;23.05;;;17.30;99.90;;;;;;5052149;28;20287;-42
2021/06/10 05:29:52;;;;;;;26.05;23.52;;;17.30;99.90;;;;;;5052272;28;20662;-45
2021/06/10 05:32:19;;;;;;;27.02;24.55;;;17.30;99.90;;;;;;5052124;28;20232;-43
2021/06/10 05:34:47;;;;;;;25.70;22.90;;;17.30;99.90;;;;;;5052342;28;20248;-44
2021/06/10 05:37:14;;;;;;;24.98;22.70;;;17.20;99.90;;;;;;5051492;28;20210;-45
2021/06/10 05:39:42;;;;;;;25.00;22.80;;;17.20;99.90;;;;;;5051883;28;20271;-43
2021/06/10 05:42:11;;;;;;;25.15;22.85;;;17.20;99.90;;;;;;5052079;28;20275;-44
2021/06/10 05:44:39;;;;;;;25.52;22.98;;;17.30;99.90;;;;;;5051531;28;20208;-42
2021/06/10 05:47:06;;;;;;;24.02;21.92;;;17.40;99.90;;;;;;5051877;28;20812;-42
2021/06/10 05:49:34;;;;;;;25.08;22.77;;;17.50;99.90;;;;;;5051911;28;20207;-44
2021/06/10 05:52:01;;;;;;;24.13;22.13;;;17.60;99.90;;;;;;5052032;28;20545;-45
2021/06/10 05:54:29;;;;;;;24.50;22.30;;;17.70;99.90;;;;;;5051805;28;20254;-43
2021/06/10 05:56:58;;;;;;;24.98;22.67;;;17.80;99.90;;;;;;5051774;28;20208;-42
2021/06/10 05:59:27;;;;;;;25.33;22.75;;;17.90;99.90;;;;;;5051725;28;20223;-43
2021/06/10 06:01:54;;;;;;;23.83;21.63;;;18.00;99.90;;;;;;5051714;28;20693;-45
2021/06/10 06:04:22;;;;;;;26.20;23.67;;;18.10;99.90;;;;;;5051981;28;20204;-42
2021/06/10 06:06:49;;;;;;;23.40;21.33;;;18.20;99.90;;;;;;5051862;28;20579;-41
2021/06/10 06:09:17;;;;;;;24.23;22.02;;;18.30;99.90;;;;;;5051856;28;20678;-41
2021/06/10 06:11:45;;;;;;;22.38;20.27;;;18.30;99.90;;;;;;5051700;28;20303;-45
2021/06/10 06:14:14;;;;;;;21.98;19.92;;;18.50;99.90;;;;;;5051575;28;20741;-42
2021/06/10 06:16:44;;;;;;;21.65;19.83;;;18.50;99.90;;;;;;5051793;28;20291;-43
2021/06/10 06:19:14;;;;;;;21.38;19.48;;;18.60;99.90;;;;;;5051711;28;20212;-43
2021/06/10 06:21:42;;;;;;;23.42;21.08;;;18.70;99.90;;;;;;5051328;28;20208;-43
2021/06/10 06:24:11;;;;;;;22.45;20.38;;;18.80;99.90;;;;;;5051947;28;20251;-47
2021/06/10 06:26:42;;;;;;;22.00;19.88;;;18.90;99.90;;;;;;5051451;28;20262;-43
2021/06/10 06:29:10;;;;;;;23.05;20.90;;;18.90;99.90;;;;;;5051376;28;20204;-43
2021/06/10 06:31:37;;;;;;;20.65;18.85;;;19.00;99.90;;;;;;5051534;28;20299;-44
2021/06/10 06:34:06;;;;;;;23.23;21.20;;;19.00;99.90;;;;;;5051386;28;20303;-42
2021/06/10 06:36:34;;;;;;;21.15;19.13;;;19.10;99.90;;;;;;5051472;28;20204;-45
2021/06/10 06:39:05;;;;;;;20.45;18.70;;;19.20;99.90;;;;;;5051338;28;20203;-43
2021/06/10 06:41:33;;;;;;;21.80;19.88;;;19.20;99.90;;;;;;5051259;28;20293;-43
2021/06/10 06:44:01;;;;;;;21.98;19.88;;;19.20;99.90;;;;;;5051865;28;20523;-42
2021/06/10 06:46:28;;;;;;;21.95;19.95;;;19.30;99.90;;;;;;5051404;28;20788;-42
2021/06/10 06:48:56;;;;;;;21.95;19.95;;;19.40;99.90;;;;;;5051370;28;20238;-43
2021/06/10 06:51:25;;;;;;;20.30;18.40;;;19.50;99.90;;;;;;5055352;28;20218;-41
2021/06/10 06:56:28;;;;;;;22.15;20.20;;;19.60;99.90;;;;;;5105019;22;20239;-51
2021/06/10 06:58:56;;;;;;;21.73;19.73;;;19.70;99.90;;;;;;5054702;28;20243;-51
2021/06/10 07:01:24;;;;;;;22.23;20.30;;;19.80;99.90;;;;;;5054684;28;20243;-51
2021/06/10 07:03:51;;;;;;;21.27;19.33;;;19.90;99.90;;;;;;5054226;28;20250;-54
2021/06/10 07:06:19;;;;;;;21.45;19.50;;;19.90;99.90;;;;;;5054071;28;20243;-49
2021/06/10 07:08:48;;;;;;;21.40;19.48;;;20.00;99.90;;;;;;5054264;28;20215;-51
2021/06/10 07:11:31;;;;;;;20.80;18.67;;;20.10;99.90;;;;;;5054065;28;20733;-53
2021/06/10 07:13:58;;;;;;;22.83;20.80;;;20.20;99.90;;;;;;5054132;28;20327;-51
2021/06/10 07:16:26;;;;;;;20.48;18.65;;;20.30;99.90;;;;;;5054106;28;20239;-50
2021/06/10 07:18:54;;;;;;;22.23;20.27;;;20.30;99.90;;;;;;5054431;28;20215;-55
2021/06/10 07:21:22;;;;;;;21.10;19.20;;;20.30;99.90;;;;;;5116697;22;20323;-52
2021/06/10 07:23:51;;;;;;;21.13;19.33;;;20.40;99.90;;;;;;5054347;28;20242;-46
2021/06/10 07:26:18;;;;;;;19.60;17.80;;;20.50;99.90;;;;;;5054504;28;20204;-52
2021/06/10 07:28:45;;;;;;;20.92;19.08;;;20.60;99.90;;;;;;5054300;28;20222;-49
2021/06/10 07:31:13;;;;;;;22.08;19.85;;;20.80;99.90;;;;;;5054105;28;20208;-46
2021/06/10 07:33:40;;;;;;;21.17;19.13;;;20.90;99.90;;;;;;5054407;28;20200;-49
2021/06/10 07:36:08;;;;;;;20.92;18.92;;;21.00;99.90;;;;;;5054138;28;20631;-50
2021/06/10 07:38:35;;;;;;;19.75;18.10;;;21.10;99.90;;;;;;5054268;28;20628;-47
2021/06/10 07:41:04;;;;;;;21.17;19.27;;;21.00;99.90;;;;;;5054138;28;20582;-53
2021/06/10 07:43:32;;;;;;;21.10;19.17;;;21.00;99.90;;;;;;5054395;28;20239;-49
2021/06/10 07:46:01;;;;;;;20.90;19.08;;;21.00;99.90;;;;;;5054014;28;20207;-48
2021/06/10 07:48:29;;;;;;;20.80;18.95;;;21.10;99.90;;;;;;5054070;28;20208;-48
2021/06/10 07:50:57;;;;;;;18.92;17.08;;;21.20;99.90;;;;;;5053916;28;20303;-49
2021/06/10 07:53:24;;;;;;;19.05;17.38;;;21.30;99.90;;;;;;5053973;28;20204;-49
2021/06/10 07:55:55;;;;;;;17.85;16.42;;;21.30;99.90;;;;;;5053796;28;20742;-50
2021/06/10 07:58:24;;;;;;;20.23;18.52;;;21.50;99.90;;;;;;5053626;28;20306;-47
2021/06/10 08:00:51;;;;;;;19.30;17.75;;;21.60;99.90;;;;;;5053122;28;20254;-49
2021/06/10 08:03:20;;;;;;;18.45;16.95;;;21.80;99.90;;;;;;5053677;28;20337;-49
2021/06/10 08:05:49;;;;;;;19.63;17.90;;;21.90;99.90;;;;;;5053649;28;20261;-47
2021/06/10 08:08:17;;;;;;;17.25;15.85;;;21.90;99.90;;;;;;5052441;28;20235;-47
2021/06/10 08:10:45;;;;;;;18.70;17.10;;;21.90;99.90;;;;;;5053701;28;20590;-47
2021/06/10 08:13:15;;;;;;;18.15;16.70;;;21.90;99.90;;;;;;5053076;28;20239;-52
2021/06/10 08:15:45;;;;;;;19.45;17.73;;;21.90;99.90;;;;;;5053682;28;20239;-46
2021/06/10 08:18:12;;;;;;;20.30;18.40;;;22.10;99.90;;;;;;5053016;28;20208;-48
2021/06/10 08:20:40;;;;;;;21.50;19.55;;;22.10;99.90;;;;;;5053360;28;20242;-48
2021/06/10 08:23:08;;;;;;;18.52;16.65;;;22.10;99.90;;;;;;5052824;28;20243;-47
2021/06/10 08:25:42;;;;;;;20.40;18.40;;;22.10;99.90;;;;;;5053442;28;20333;-47
2021/06/10 08:28:11;;;;;;;18.33;16.83;;;22.10;99.90;;;;;;5053364;28;20239;-46
2021/06/10 08:30:39;;;;;;;18.23;16.63;;;22.20;99.90;;;;;;5053371;28;20208;-46
2021/06/10 08:33:08;;;;;;;17.30;15.63;;;22.60;99.90;;;;;;5053020;28;20215;-49
2021/06/10 08:35:35;;;;;;;17.83;16.42;;;23.00;99.90;;;;;;5052920;28;20780;-47
2021/06/10 08:38:06;;;;;;;17.40;15.93;;;23.30;99.90;;;;;;5053005;28;20303;-46
2021/06/10 08:40:34;;;;;;;17.92;16.30;;;23.60;99.90;;;;;;5053069;28;20219;-48
2021/06/10 08:43:05;;;;;;;16.77;15.32;;;23.80;99.90;;;;;;5053059;28;20236;-49
2021/06/10 08:45:34;;;;;;;16.67;15.23;;;24.00;99.90;;;;;;5052889;28;20610;-48
2021/06/10 08:48:01;;;;;;;16.70;15.40;;;24.10;99.90;;;;;;5052526;28;20212;-48
2021/06/10 08:50:33;;;;;;;17.13;15.73;;;23.80;99.90;;;;;;5052688;28;20212;-47
2021/06/10 08:53:01;;;;;;;17.13;15.63;;;23.60;99.90;;;;;;5052899;28;20204;-46
2021/06/10 08:55:29;;;;;;;15.93;14.73;;;23.30;99.90;;;;;;5052635;28;20529;-51
2021/06/10 08:57:57;;;;;;;17.45;15.85;;;23.10;99.90;;;;;;5052615;28;20207;-52
2021/06/10 09:00:26;;;;;;;16.70;15.35;;;22.90;99.90;;;;;;5052529;28;20207;-48
2021/06/10 09:02:56;;;;;;;14.98;13.63;;;22.90;99.90;;;;;;5052496;28;20346;-48
2021/06/10 09:05:25;;;;;;;15.57;14.25;;;22.80;99.90;;;;;;5052658;28;20258;-47
2021/06/10 09:07:56;;;;;;;14.75;13.55;;;22.80;99.90;;;;;;5052512;28;20219;-48
2021/06/10 09:10:26;;;;;;;14.65;13.38;;;22.90;99.90;;;;;;5052497;28;20247;-49
2021/06/10 09:12:57;;;;;;;15.15;13.70;;;22.90;99.90;;;;;;5051737;28;20208;-50
2021/06/10 09:15:28;;;;;;;15.88;14.60;;;22.80;99.90;;;;;;5052459;28;20298;-49
2021/06/10 09:18:00;;;;;;;14.23;12.93;;;22.80;99.90;;;;;;5052568;28;20291;-49
2021/06/10 09:20:35;;;;;;;12.77;11.77;;;22.90;99.90;;;;;;5052438;28;20251;-53
2021/06/10 09:23:23;;;;;;;14.07;12.90;;;22.90;99.90;;;;;;5052086;28;20571;-48
2021/06/10 09:26:00;;;;;;;15.10;13.90;;;22.90;99.90;;;;;;5052170;28;20577;-49
2021/06/10 09:28:32;;;;;;;13.15;12.13;;;23.00;99.90;;;;;;5052185;28;20345;-46
2021/06/10 09:30:59;;;;;;;14.15;12.90;;;23.10;99.90;;;;;;5052100;28;20298;-48
2021/06/10 09:33:38;;;;;;;12.65;11.68;;;23.30;99.90;;;;;;5051816;28;20203;-47
2021/06/10 09:36:06;;;;;;;13.25;12.07;;;23.40;99.70;;;;;;5051722;28;20307;-48
2021/06/10 09:38:35;;;;;;;21.25;13.70;;;23.50;99.40;;;;;;5052253;28;20346;-48
2021/06/10 09:41:05;;;;;;;13.50;12.38;;;23.80;99.10;;;;;;5052072;28;20246;-49
2021/06/10 09:43:41;;;;;;;13.15;11.95;;;24.30;98.40;;;;;;5052185;28;20267;-51
2021/06/10 09:46:09;;;;;;;14.30;13.00;;;24.80;97.80;;;;;;5051741;28;20262;-49
2021/06/10 09:48:37;;;;;;;13.60;12.60;;;25.20;96.90;;;;;;5051567;28;20208;-47
2021/06/10 09:51:05;;;;;;;13.18;12.07;;;25.50;96.10;;;;;;5051877;28;20245;-47
2021/06/10 09:53:33;;;;;;;13.50;12.40;;;25.80;95.60;;;;;;5051903;28;20214;-46
2021/06/10 09:56:07;;;;;;;11.52;10.50;;;25.80;95.20;;;;;;5051664;28;20208;-47
2021/06/10 09:58:39;;;;;;;12.38;11.23;;;25.80;95.00;;;;;;5051555;28;20277;-48
2021/06/10 10:01:11;;;;;;;12.73;11.70;;;25.70;95.00;;;;;;5051410;28;20720;-46
2021/06/10 10:03:44;;;;;;;12.88;11.70;;;25.70;94.80;;;;;;5051337;28;20238;-47
2021/06/10 10:06:20;;;;;;;13.23;11.98;;;25.80;94.80;;;;;;5051374;28;20244;-46
2021/06/10 10:08:51;;;;;;;12.80;11.80;;;25.70;94.80;;;;;;5051563;28;20208;-49
2021/06/10 10:11:21;;;;;;;12.50;11.50;;;25.50;94.90;;;;;;5051195;28;20577;-48
2021/06/10 10:13:53;;;;;;;10.02;9.32;;;25.40;95.40;;;;;;5051514;28;20629;-45
2021/06/10 10:16:24;;;;;;;11.60;10.68;;;25.10;95.60;;;;;;5051513;28;20218;-47
2021/06/10 10:18:53;;;;;;;10.80;9.90;;;24.90;96.00;;;;;;5051610;28;20238;-46
2021/06/10 10:21:26;;;;;;;11.13;10.25;;;24.70;96.30;;;;;;5050894;28;20299;-44
2021/06/10 10:23:57;;;;;;;9.93;9.15;;;24.60;96.60;;;;;;5052719;28;20239;-48
2021/06/10 10:26:26;;;;;;;11.13;10.10;;;24.50;96.60;;;;;;5055307;28;20211;-46
2021/06/10 10:28:53;;;;;;;10.20;9.40;;;24.30;96.80;;;;;;5055491;28;20226;-46
2021/06/10 10:31:21;;;;;;;10.57;9.77;;;24.20;97.10;;;;;;5055721;28;20239;-48
2021/06/10 10:33:49;;;;;;;8.85;8.05;;;24.00;97.30;;;;;;5055504;28;20200;-46
2021/06/10 10:36:26;;;;;;;8.35;7.55;;;23.90;97.30;;;;;;5055295;28;20212;-46
2021/06/10 10:38:58;;;;;;;8.10;7.40;;;23.90;97.00;;;;;;5055557;28;20254;-45
2021/06/10 10:41:27;;;;;;;8.05;7.45;;;23.90;96.90;;;;;;5055522;28;20236;-46
2021/06/10 10:44:10;;;;;;;9.02;8.27;;;24.00;96.70;;;;;;5055164;28;20263;-47
2021/06/10 10:46:38;;;;;;;10.13;9.20;;;24.20;96.20;;;;;;5055005;28;20299;-46
2021/06/10 10:49:21;;;;;;;9.02;8.32;;;24.20;96.00;;;;;;5054748;28;20211;-49
2021/06/10 10:51:49;;;;;;;9.35;8.55;;;24.20;95.80;;;;;;5055084;28;20212;-49
2021/06/10 10:54:33;;;;;;;10.57;9.68;;;24.30;95.90;;;;;;5055001;28;20242;-47
2021/06/10 10:57:04;;;;;;;10.07;9.18;;;24.50;95.70;;;;;;5055245;28;20219;-47
2021/06/10 10:59:40;;;;;;;8.73;8.02;;;24.60;95.20;;;;;;5054576;28;20208;-45
2021/06/10 11:02:10;;;;;;;7.57;7.00;;;24.80;94.50;;;;;;5054926;28;20305;-46
2021/06/10 11:04:55;;;;;;;8.00;7.40;;;24.90;94.30;;;;;;5054722;28;20354;-47
2021/06/10 11:07:51;;;;;;;7.03;6.43;;;24.80;94.10;;;;;;5054728;28;20212;-48
2021/06/10 11:10:53;;;;;;;7.57;6.97;;;24.60;94.00;;;;;;5054744;28;20570;-48
2021/06/10 11:13:23;;;;;;;7.63;7.03;;;24.40;93.80;;;;;;5054476;28;20321;-47
2021/06/10 11:15:51;;;;;;;8.32;7.57;;;24.30;94.20;;;;;;5054441;28;20649;-48
2021/06/10 11:18:45;;;;;;;8.38;7.68;;;24.40;94.10;;;;;;5054376;28;20545;-49
2021/06/10 11:21:35;;;;;;;6.97;6.43;;;24.40;93.50;;;;;;5054370;28;20327;-49
2021/06/10 11:24:12;;;;;;;6.85;6.30;;;24.60;93.30;;;;;;5054075;28;20232;-46
2021/06/10 11:26:48;;;;;;;7.45;6.82;;;25.00;92.40;;;;;;5054229;28;20208;-52
2021/06/10 11:29:17;;;;;;;7.20;6.70;;;25.30;91.70;;;;;;5054430;28;20211;-48
2021/06/10 11:32:16;;;;;;;5.65;5.25;;;25.50;91.60;;;;;;5054279;28;20214;-45
2021/06/10 11:34:49;;;;;;;7.38;6.68;;;25.70;90.40;;;;;;5053520;28;20214;-49
2021/06/10 11:37:20;;;;;;;7.70;7.00;;;26.00;89.90;;;;;;5053976;28;20741;-46
2021/06/10 11:39:48;;;;;;;7.40;6.80;;;26.20;89.40;;;;;;5054239;28;20215;-46
2021/06/10 11:42:15;;;;;;;8.18;7.43;;;26.30;88.60;;;;;;5054045;28;20386;-50
2021/06/10 11:44:48;;;;;;;6.75;6.18;;;26.40;88.00;;;;;;5053965;28;20255;-48
2021/06/10 11:47:21;;;;;;;7.45;6.85;;;26.80;86.30;;;;;;5053909;28;20303;-48
2021/06/10 11:49:48;;;;;;;7.60;6.38;;;27.10;84.80;;;;;;5053982;28;20224;-46
2021/06/10 11:52:16;;;;;;;7.60;7.00;;;27.40;83.40;;;;;;5053746;28;20212;-50
2021/06/10 11:55:01;;;;;;;7.10;6.50;;;27.50;83.10;;;;;;5053761;28;20659;-48
2021/06/10 11:57:29;;;;;;;6.90;6.30;;;27.50;82.30;;;;;;5053998;28;20243;-45
2021/06/10 12:00:04;;;;;;;6.70;6.10;;;27.50;81.80;;;;;;5053598;28;20286;-46
2021/06/10 12:02:32;;;;;;;6.22;5.82;;;27.30;81.90;;;;;;5053893;28;20635;-44
2021/06/10 12:05:09;;;;;;;11.55;7.30;;;27.00;82.60;;;;;;5053522;28;20607;-47
2021/06/10 12:07:36;;;;;;;7.50;6.97;;;26.80;83.30;;;;;;5053576;28;20207;-46
2021/06/10 12:10:09;;;;;;;7.63;7.03;;;26.50;83.70;;;;;;5053321;28;20214;-46
2021/06/10 12:12:41;;;;;;;8.15;7.50;;;26.20;84.50;;;;;;5053554;28;20204;-46
2021/06/10 12:15:28;;;;;;;7.55;6.95;;;26.00;85.20;;;;;;5053146;28;20550;-47
2021/06/10 12:17:57;;;;;;;7.65;7.13;;;25.70;86.50;;;;;;5053323;28;20207;-45
2021/06/10 12:20:39;;;;;;;7.82;7.13;;;25.50;87.60;;;;;;5052949;28;20236;-45
2021/06/10 12:23:13;;;;;;;8.80;8.10;;;25.30;88.60;;;;;;5053454;28;20304;-45
2021/06/10 12:25:40;;;;;;;8.48;7.72;;;25.20;90.00;;;;;;5053362;28;20727;-46
2021/06/10 12:28:07;;;;;;;8.52;7.93;;;25.20;90.00;;;;;;5053248;28;20208;-48
2021/06/10 12:30:39;;;;;;;8.40;7.65;;;25.20;90.10;;;;;;5053201;28;20204;-47
2021/06/10 12:33:14;;;;;;;9.27;8.38;;;25.40;90.00;;;;;;5053699;28;20212;-46
2021/06/10 12:35:44;;;;;;;7.28;6.60;;;25.50;89.40;;;;;;5053319;28;20230;-46
2021/06/10 12:38:13;;;;;;;7.32;6.63;;;25.60;88.40;;;;;;5053450;28;20215;-47
2021/06/10 12:40:42;;;;;;;7.40;6.75;;;25.80;87.80;;;;;;5053035;28;20219;-46
2021/06/10 12:43:12;;;;;;;7.97;7.35;;;25.90;86.90;;;;;;5052817;28;20674;-44
2021/06/10 12:45:41;;;;;;;8.65;7.95;;;26.00;86.60;;;;;;5052650;28;20234;-46
2021/06/10 12:48:23;;;;;;;7.80;7.30;;;26.00;86.40;;;;;;5052987;28;20204;-48